Time;durP1;ratioP1;P1;durP2;ratioP2;P2;SDS_P1;SDS_P2;PMS_P1;PMS_P2;Temp;Humidity;BMP_temperature;BMP_pressure;BME280_temperature;BME280_humidity;BME280_pressure;Samples;Min_cycle;Max_cycle;Signal;HPM_P1;HPM_P2
2022/03/24 00:01:22;;;;;;;68.00;33.75;;;;;;;;;;5039232;28;20029;-90
2022/03/24 00:03:48;;;;;;;77.13;35.83;;;;;;;;;;5054852;28;20026;-90
2022/03/24 00:06:14;;;;;;;76.15;36.85;;;;;;;;;;5054669;28;20033;-90
2022/03/24 00:08:40;;;;;;;78.72;36.80;;;;;;;;;;5038519;28;20138;-92
2022/03/24 00:11:06;;;;;;;86.35;37.78;;;;;;;;;;5054644;28;20435;-89
2022/03/24 00:13:32;;;;;;;80.18;37.30;;;;;;;;;;5038988;28;20026;-89
2022/03/24 00:15:59;;;;;;;81.60;39.30;;;;;;;;;;5038876;28;20104;-90
2022/03/24 00:18:25;;;;;;;77.57;38.35;;;;;;;;;;5038719;28;20316;-90
2022/03/24 00:20:52;;;;;;;76.90;38.88;;;;;;;;;;5054457;28;20037;-91
2022/03/24 00:23:18;;;;;;;85.43;40.55;;;;;;;;;;5038404;28;20332;-91
2022/03/24 00:25:44;;;;;;;85.53;40.08;;;;;;;;;;5054260;28;20057;-91
2022/03/24 00:28:19;;;;;;;88.50;43.55;;;;;;;;;;5053996;28;20037;-89
2022/03/24 00:30:45;;;;;;;93.55;43.13;;;;;;;;;;5054167;28;20415;-91
2022/03/24 00:33:12;;;;;;;89.75;42.25;;;;;;;;;;5038385;28;20026;-91
2022/03/24 00:35:38;;;;;;;92.47;42.92;;;;;;;;;;5054220;28;20041;-91
2022/03/24 00:38:07;;;;;;;90.07;42.13;;;;;;;;;;5054000;28;20124;-90
2022/03/24 00:40:34;;;;;;;90.15;41.65;;;;;;;;;;5038505;28;20064;-90
2022/03/24 00:43:01;;;;;;;87.38;41.83;;;;;;;;;;5038106;28;20014;-90
2022/03/24 00:45:29;;;;;;;79.03;39.72;;;;;;;;;;5038376;28;20029;-90
2022/03/24 00:47:55;;;;;;;80.13;39.20;;;;;;;;;;5038351;28;20048;-91
2022/03/24 00:50:21;;;;;;;77.85;39.05;;;;;;;;;;5037486;28;20022;-90
2022/03/24 00:52:47;;;;;;;85.38;40.83;;;;;;;;;;5038170;28;20032;-89
2022/03/24 00:55:15;;;;;;;85.72;41.55;;;;;;;;;;5053776;28;20025;-91
2022/03/24 00:57:42;;;;;;;82.68;39.67;;;;;;;;;;5053739;28;20029;-90
2022/03/24 01:00:09;;;;;;;75.15;37.10;;;;;;;;;;5037929;28;20021;-90
2022/03/24 01:02:38;;;;;;;71.07;34.88;;;;;;;;;;5053625;28;20332;-90
2022/03/24 01:05:08;;;;;;;66.20;34.47;;;;;;;;;;5053507;28;20053;-90
2022/03/24 01:07:37;;;;;;;70.97;34.45;;;;;;;;;;5037777;28;20029;-90
2022/03/24 01:10:04;;;;;;;69.18;33.28;;;;;;;;;;5037859;28;20022;-89
2022/03/24 01:12:30;;;;;;;76.97;33.22;;;;;;;;;;5037906;28;20412;-91
2022/03/24 01:14:56;;;;;;;70.47;32.65;;;;;;;;;;5037969;28;20116;-90
2022/03/24 01:17:25;;;;;;;63.63;32.83;;;;;;;;;;5053506;28;20032;-89
2022/03/24 01:19:51;;;;;;;67.00;33.80;;;;;;;;;;5037628;28;20030;-90
2022/03/24 01:22:17;;;;;;;63.03;32.78;;;;;;;;;;5037505;28;20412;-90
2022/03/24 01:24:45;;;;;;;70.45;32.83;;;;;;;;;;5053409;28;20323;-92
2022/03/24 01:27:14;;;;;;;63.70;29.75;;;;;;;;;;5037852;28;20021;-91
2022/03/24 01:29:41;;;;;;;65.13;31.77;;;;;;;;;;5038061;28;20031;-90
2022/03/24 01:32:07;;;;;;;56.55;28.98;;;;;;;;;;5037760;28;20301;-91
2022/03/24 01:34:34;;;;;;;54.58;27.08;;;;;;;;;;5037387;28;20033;-90
2022/03/24 01:37:00;;;;;;;62.28;27.55;;;;;;;;;;5037363;28;20073;-90
2022/03/24 01:39:27;;;;;;;59.78;29.02;;;;;;;;;;5053108;28;20033;-91
2022/03/24 01:41:53;;;;;;;56.13;27.23;;;;;;;;;;5053180;28;20033;-89
2022/03/24 01:44:21;;;;;;;56.05;27.27;;;;;;;;;;5052851;28;20113;-90
2022/03/24 01:46:58;;;;;;;52.78;27.00;;;;;;;;;;5037351;28;20029;-89
2022/03/24 01:49:25;;;;;;;59.78;26.58;;;;;;;;;;5037585;28;20053;-89
2022/03/24 01:51:51;;;;;;;56.67;27.65;;;;;;;;;;5037702;28;20347;-90
2022/03/24 01:54:18;;;;;;;61.65;29.13;;;;;;;;;;5037401;28;20104;-89
2022/03/24 01:56:44;;;;;;;53.75;27.00;;;;;;;;;;5037251;28;20017;-89
2022/03/24 01:59:11;;;;;;;59.38;27.42;;;;;;;;;;5037235;28;20029;-90
2022/03/24 02:01:37;;;;;;;51.90;27.17;;;;;;;;;;5055044;28;20029;-91
2022/03/24 02:04:04;;;;;;;53.13;27.73;;;;;;;;;;5041176;28;20396;-90
2022/03/24 02:06:34;;;;;;;66.22;28.42;;;;;;;;;;5056820;28;20025;-90
2022/03/24 02:09:00;;;;;;;68.65;31.17;;;;;;;;;;5057081;28;20036;-91
2022/03/24 02:11:30;;;;;;;60.83;29.55;;;;;;;;;;5041279;28;20033;-90
2022/03/24 02:13:57;;;;;;;69.70;30.20;;;;;;;;;;5056854;28;20057;-91
2022/03/24 02:16:27;;;;;;;73.00;31.15;;;;;;;;;;5056596;28;20033;-90
2022/03/24 02:18:59;;;;;;;69.28;30.33;;;;;;;;;;5040920;28;20424;-90
2022/03/24 02:21:25;;;;;;;;;;;;;;;;;;5041256;28;20026;-91
2022/03/24 02:23:52;;;;;;;56.45;27.00;;;;;;;;;;5039949;28;19912;-91
2022/03/24 02:26:18;;;;;;;58.63;28.15;;;;;;;;;;5056717;28;20033;-91
2022/03/24 02:28:47;;;;;;;54.92;26.88;;;;;;;;;;5056705;28;20034;-89
2022/03/24 02:31:14;;;;;;;56.80;27.25;;;;;;;;;;5056521;28;20021;-90
2022/03/24 02:33:40;;;;;;;64.88;31.50;;;;;;;;;;5040560;28;20022;-89
2022/03/24 02:36:07;;;;;;;62.88;30.30;;;;;;;;;;5040532;28;20136;-89
2022/03/24 02:38:33;;;;;;;65.72;30.45;;;;;;;;;;5040626;28;20104;-91
2022/03/24 02:40:59;;;;;;;60.03;30.33;;;;;;;;;;5040761;28;20021;-90
2022/03/24 02:43:26;;;;;;;69.20;31.83;;;;;;;;;;5056020;28;20308;-89
2022/03/24 02:45:53;;;;;;;82.05;35.85;;;;;;;;;;5040618;28;20315;-89
2022/03/24 02:48:20;;;;;;;68.22;34.28;;;;;;;;;;5040579;28;20045;-90
2022/03/24 02:50:46;;;;;;;68.90;33.25;;;;;;;;;;5040616;28;20029;-89
2022/03/24 02:53:12;;;;;;;73.65;33.53;;;;;;;;;;5040555;28;20340;-90
2022/03/24 02:55:38;;;;;;;77.75;35.28;;;;;;;;;;5056063;28;20021;-90
2022/03/24 02:58:05;;;;;;;73.00;34.75;;;;;;;;;;5040248;28;20041;-91
2022/03/24 03:00:31;;;;;;;71.20;34.97;;;;;;;;;;5040271;28;20032;-90
2022/03/24 03:02:57;;;;;;;72.65;35.08;;;;;;;;;;5040127;28;20029;-89
2022/03/24 03:05:23;;;;;;;80.03;33.85;;;;;;;;;;5055946;28;20434;-89
2022/03/24 03:07:51;;;;;;;69.10;34.85;;;;;;;;;;5055722;28;20033;-88
2022/03/24 03:10:17;;;;;;;72.40;32.88;;;;;;;;;;5040106;28;20032;-90
2022/03/24 03:12:46;;;;;;;61.63;32.78;;;;;;;;;;5039148;28;20032;-90
2022/03/24 03:15:12;;;;;;;68.80;31.77;;;;;;;;;;5040012;28;20327;-90
2022/03/24 03:17:39;;;;;;;69.00;32.13;;;;;;;;;;5055628;28;20293;-89
2022/03/24 03:20:06;;;;;;;65.07;32.45;;;;;;;;;;5055429;28;20017;-91
2022/03/24 03:22:32;;;;;;;58.97;31.25;;;;;;;;;;5055346;28;20025;-90
2022/03/24 03:24:59;;;;;;;80.05;37.42;;;;;;;;;;5055442;28;20038;-90
2022/03/24 03:27:31;;;;;;;79.50;39.33;;;;;;;;;;5039823;28;20045;-90
2022/03/24 03:29:57;;;;;;;78.88;37.38;;;;;;;;;;5039663;28;20045;-91
2022/03/24 03:32:24;;;;;;;82.15;36.05;;;;;;;;;;5054940;28;20033;-92
2022/03/24 03:34:50;;;;;;;76.50;34.70;;;;;;;;;;5055164;28;20022;-91
2022/03/24 03:37:16;;;;;;;67.85;32.80;;;;;;;;;;5039728;28;20036;-92
2022/03/24 03:39:42;;;;;;;66.13;32.78;;;;;;;;;;5055162;28;20022;-91
2022/03/24 03:42:08;;;;;;;60.58;30.65;;;;;;;;;;5055261;28;20128;-91
2022/03/24 03:44:35;;;;;;;59.60;29.52;;;;;;;;;;5039503;28;20029;-91
2022/03/24 03:47:01;;;;;;;57.40;29.50;;;;;;;;;;5039460;28;20026;-90
2022/03/24 03:49:27;;;;;;;62.50;31.30;;;;;;;;;;5039288;28;20489;-90
2022/03/24 03:51:55;;;;;;;59.83;34.30;;;;;;;;;;5039474;28;20049;-90
2022/03/24 03:54:21;;;;;;;77.72;50.08;;;;;;;;;;5039305;28;20025;-89
2022/03/24 03:56:47;;;;;;;62.58;36.95;;;;;;;;;;5039259;28;20057;-91
2022/03/24 03:59:13;;;;;;;53.58;29.85;;;;;;;;;;5054761;28;20398;-90
2022/03/24 04:01:40;;;;;;;53.80;28.10;;;;;;;;;;5054722;28;20293;-91
2022/03/24 04:04:12;;;;;;;50.35;25.90;;;;;;;;;;5039438;28;20052;-91
2022/03/24 04:06:38;;;;;;;48.05;25.67;;;;;;;;;;5039241;28;20026;-90
2022/03/24 04:09:04;;;;;;;47.65;24.88;;;;;;;;;;5039096;28;20116;-90
2022/03/24 04:11:30;;;;;;;43.83;24.48;;;;;;;;;;5054562;28;20025;-91
2022/03/24 04:13:56;;;;;;;50.10;24.70;;;;;;;;;;5038750;28;20025;-91
2022/03/24 04:16:22;;;;;;;48.28;23.33;;;;;;;;;;5054478;28;20060;-91
2022/03/24 04:18:49;;;;;;;47.92;23.83;;;;;;;;;;5039056;28;20717;-89
2022/03/24 04:21:16;;;;;;;50.35;24.85;;;;;;;;;;5054294;28;20502;-90
2022/03/24 04:23:42;;;;;;;51.80;25.05;;;;;;;;;;5038740;28;20030;-91
2022/03/24 04:26:12;;;;;;;45.08;24.33;;;;;;;;;;5038626;28;20030;-91
2022/03/24 04:28:38;;;;;;;44.90;23.38;;;;;;;;;;5038676;28;20029;-90
2022/03/24 04:31:05;;;;;;;49.40;23.83;;;;;;;;;;5038434;28;20053;-91
2022/03/24 04:33:31;;;;;;;56.28;26.40;;;;;;;;;;5054096;28;20029;-90
2022/03/24 04:36:00;;;;;;;54.53;27.55;;;;;;;;;;5038215;28;20495;-90
2022/03/24 04:38:26;;;;;;;68.07;29.25;;;;;;;;;;5038497;28;20369;-90
2022/03/24 04:40:53;;;;;;;57.05;27.15;;;;;;;;;;5038653;28;20026;-90
2022/03/24 04:43:24;;;;;;;56.97;26.63;;;;;;;;;;5038386;28;20331;-89
2022/03/24 04:45:51;;;;;;;45.88;26.15;;;;;;;;;;5038217;28;20021;-90
2022/03/24 04:48:17;;;;;;;48.95;24.10;;;;;;;;;;5038263;28;20052;-89
2022/03/24 04:50:43;;;;;;;47.33;25.70;;;;;;;;;;5038217;28;20323;-89
2022/03/24 04:53:14;;;;;;;58.63;25.83;;;;;;;;;;5038247;28;20045;-89
2022/03/24 04:55:40;;;;;;;59.15;26.73;;;;;;;;;;5053802;28;20029;-88
2022/03/24 04:58:06;;;;;;;55.67;29.02;;;;;;;;;;5053795;28;20037;-90
2022/03/24 05:00:33;;;;;;;56.80;30.40;;;;;;;;;;5051637;28;20030;-89
2022/03/24 05:02:59;;;;;;;54.88;28.40;;;;;;;;;;5028954;28;20064;-89
2022/03/24 05:05:25;;;;;;;61.20;26.80;;;;;;;;;;5032520;28;20029;-91
2022/03/24 05:07:51;;;;;;;81.50;38.50;;;;;;;;;;5036431;28;20314;-90
2022/03/24 05:10:18;;;;;;;74.18;38.63;;;;;;;;;;5018423;28;20048;-90
2022/03/24 05:12:44;;;;;;;63.13;32.88;;;;;;;;;;5026025;28;20029;-88
2022/03/24 05:15:11;;;;;;;55.75;28.80;;;;;;;;;;5036956;28;20025;-90
2022/03/24 05:17:37;;;;;;;50.28;25.63;;;;;;;;;;5033913;28;20316;-89
2022/03/24 05:20:03;;;;;;;50.40;24.38;;;;;;;;;;5038026;28;20056;-90
2022/03/24 05:22:29;;;;;;;45.38;24.13;;;;;;;;;;5037832;28;20112;-90
2022/03/24 05:24:55;;;;;;;52.40;25.75;;;;;;;;;;5037641;28;20029;-88
2022/03/24 05:27:21;;;;;;;52.20;25.48;;;;;;;;;;5037934;28;20064;-90
2022/03/24 05:29:47;;;;;;;54.85;28.23;;;;;;;;;;5037502;28;20075;-90
2022/03/24 05:32:14;;;;;;;59.35;30.85;;;;;;;;;;5037477;28;20108;-89
2022/03/24 05:34:40;;;;;;;76.28;38.35;;;;;;;;;;5037498;28;20482;-89
2022/03/24 05:37:06;;;;;;;90.55;42.63;;;;;;;;;;5036076;28;20053;-90
2022/03/24 05:39:32;;;;;;;102.18;46.08;;;;;;;;;;5037713;28;20021;-89
2022/03/24 05:41:58;;;;;;;106.28;50.05;;;;;;;;;;5037854;28;20026;-88
2022/03/24 05:44:24;;;;;;;88.13;41.80;;;;;;;;;;5037461;28;20416;-91
2022/03/24 05:46:51;;;;;;;66.40;33.97;;;;;;;;;;5036418;28;20030;-89
2022/03/24 05:49:19;;;;;;;64.57;31.23;;;;;;;;;;5037603;28;20331;-89
2022/03/24 05:51:46;;;;;;;67.65;29.83;;;;;;;;;;5037433;28;20034;-89
2022/03/24 05:54:13;;;;;;;62.28;30.80;;;;;;;;;;5037469;28;20029;-89
2022/03/24 05:56:39;;;;;;;57.10;28.83;;;;;;;;;;5037459;28;20034;-89
2022/03/24 05:59:05;;;;;;;52.58;29.42;;;;;;;;;;5037654;28;20025;-89
2022/03/24 06:01:33;;;;;;;55.67;29.17;;;;;;;;;;5037235;28;20419;-89
2022/03/24 06:03:59;;;;;;;53.17;29.65;;;;;;;;;;5037569;28;20029;-89
2022/03/24 06:06:28;;;;;;;54.63;31.00;;;;;;;;;;5037358;28;20029;-89
2022/03/24 06:08:56;;;;;;;61.53;32.42;;;;;;;;;;5037421;28;20068;-89
2022/03/24 06:11:24;;;;;;;54.47;30.40;;;;;;;;;;5036456;28;20033;-88
2022/03/24 06:13:50;;;;;;;52.22;28.98;;;;;;;;;;5036324;28;20025;-88
2022/03/24 06:16:16;;;;;;;52.92;28.10;;;;;;;;;;5036394;28;20036;-89
2022/03/24 06:18:42;;;;;;;50.42;28.63;;;;;;;;;;5037318;28;20013;-89
2022/03/24 06:21:08;;;;;;;53.03;28.25;;;;;;;;;;5036150;28;20105;-89
2022/03/24 06:23:34;;;;;;;49.80;28.25;;;;;;;;;;5037053;28;20025;-89
2022/03/24 06:26:01;;;;;;;54.10;29.20;;;;;;;;;;5036998;28;20032;-88
2022/03/24 06:28:28;;;;;;;50.72;26.52;;;;;;;;;;5037331;28;20033;-89
2022/03/24 06:30:54;;;;;;;47.13;25.83;;;;;;;;;;5037047;28;20029;-88
2022/03/24 06:33:20;;;;;;;45.58;27.05;;;;;;;;;;5037360;28;20033;-88
2022/03/24 06:35:48;;;;;;;45.17;26.25;;;;;;;;;;5036926;28;20046;-88
2022/03/24 06:38:14;;;;;;;45.88;27.90;;;;;;;;;;5037155;28;20104;-88
2022/03/24 06:40:41;;;;;;;49.63;28.73;;;;;;;;;;5037127;28;20014;-88
2022/03/24 06:43:08;;;;;;;53.45;28.20;;;;;;;;;;5036769;28;20323;-88
2022/03/24 06:45:34;;;;;;;42.38;24.67;;;;;;;;;;5036785;28;20075;-89
2022/03/24 06:48:01;;;;;;;50.97;28.33;;;;;;;;;;5036760;28;20021;-88
2022/03/24 06:50:27;;;;;;;50.65;27.80;;;;;;;;;;5040553;28;20079;-89
2022/03/24 06:52:53;;;;;;;62.28;29.70;;;;;;;;;;5040423;28;20026;-88
2022/03/24 06:55:20;;;;;;;46.67;27.15;;;;;;;;;;5040238;28;20107;-87
2022/03/24 06:57:46;;;;;;;45.33;25.77;;;;;;;;;;5040496;28;20045;-87
2022/03/24 07:00:14;;;;;;;50.40;28.50;;;;;;;;;;5039315;28;20446;-89
2022/03/24 07:02:40;;;;;;;66.30;38.97;;;;;;;;;;5039381;28;20026;-88
2022/03/24 07:05:11;;;;;;;48.15;31.17;;;;;;;;;;5039838;28;20052;-87
2022/03/24 07:07:37;;;;;;;51.47;33.08;;;;;;;;;;5039239;28;20025;-87
2022/03/24 07:10:03;;;;;;;35.75;21.95;;;;;;;;;;5039205;28;20033;-88
2022/03/24 07:12:29;;;;;;;39.20;22.45;;;;;;;;;;5039147;28;20033;-87
2022/03/24 07:14:55;;;;;;;43.67;23.58;;;;;;;;;;5039825;28;20120;-88
2022/03/24 07:17:21;;;;;;;37.47;23.10;;;;;;;;;;5039271;28;20025;-88
2022/03/24 07:19:48;;;;;;;40.55;21.15;;;;;;;;;;5040193;28;20358;-87
2022/03/24 07:22:14;;;;;;;46.03;22.27;;;;;;;;;;5040176;28;20312;-87
2022/03/24 07:24:40;;;;;;;40.45;22.63;;;;;;;;;;5039810;28;20404;-87
2022/03/24 07:27:06;;;;;;;43.28;22.38;;;;;;;;;;5039835;28;20038;-87
2022/03/24 07:29:33;;;;;;;39.88;21.17;;;;;;;;;;5039971;28;20106;-88
2022/03/24 07:31:59;;;;;;;38.42;21.00;;;;;;;;;;5039847;28;20025;-88
2022/03/24 07:34:26;;;;;;;35.60;20.08;;;;;;;;;;5039572;28;20021;-88
2022/03/24 07:36:52;;;;;;;36.60;19.55;;;;;;;;;;5039867;28;20128;-88
2022/03/24 07:39:18;;;;;;;37.78;19.38;;;;;;;;;;5038626;28;20013;-88
2022/03/24 07:41:44;;;;;;;38.53;20.05;;;;;;;;;;5039435;28;20396;-89
2022/03/24 07:44:11;;;;;;;38.47;19.08;;;;;;;;;;5039281;28;20021;-90
2022/03/24 07:46:37;;;;;;;32.05;18.20;;;;;;;;;;5039571;28;20025;-89
2022/03/24 07:49:03;;;;;;;32.25;17.27;;;;;;;;;;5039407;28;20112;-87
2022/03/24 07:51:32;;;;;;;39.67;18.95;;;;;;;;;;5039605;28;20055;-84
2022/03/24 07:54:02;;;;;;;42.67;18.75;;;;;;;;;;5039392;28;20032;-83
2022/03/24 07:56:29;;;;;;;43.05;19.42;;;;;;;;;;5038179;28;20029;-85
2022/03/24 07:58:56;;;;;;;38.53;19.60;;;;;;;;;;5038779;28;20030;-83
2022/03/24 08:01:29;;;;;;;27.00;16.80;;;;;;;;;;5037988;28;20033;-84
2022/03/24 08:03:56;;;;;;;30.88;15.70;;;;;;;;;;5038999;28;20057;-84
2022/03/24 08:06:23;;;;;;;31.70;17.50;;;;;;;;;;5038910;28;20026;-84
2022/03/24 08:08:49;;;;;;;28.50;16.67;;;;;;;;;;5038791;28;20033;-84
2022/03/24 08:11:15;;;;;;;32.72;17.40;;;;;;;;;;5038943;28;20030;-84
2022/03/24 08:13:41;;;;;;;24.77;15.68;;;;;;;;;;5037515;28;20072;-84
2022/03/24 08:16:07;;;;;;;31.70;15.45;;;;;;;;;;5038636;28;20053;-84
2022/03/24 08:18:33;;;;;;;25.95;15.63;;;;;;;;;;5038396;28;20025;-81
2022/03/24 08:20:59;;;;;;;31.60;15.02;;;;;;;;;;5037148;28;20022;-82
2022/03/24 08:23:25;;;;;;;26.48;14.27;;;;;;;;;;5038211;28;20117;-81
2022/03/24 08:25:52;;;;;;;28.35;13.27;;;;;;;;;;5038558;28;20064;-82
2022/03/24 08:28:18;;;;;;;31.67;13.80;;;;;;;;;;5038059;28;20041;-82
2022/03/24 08:30:45;;;;;;;32.70;12.50;;;;;;;;;;5038170;28;20024;-82
2022/03/24 08:33:12;;;;;;;20.60;11.55;;;;;;;;;;5038244;28;20339;-82
2022/03/24 08:35:38;;;;;;;22.52;12.65;;;;;;;;;;5037956;28;20430;-82
2022/03/24 08:38:04;;;;;;;29.63;11.52;;;;;;;;;;5036991;28;20091;-82
2022/03/24 08:40:31;;;;;;;19.65;10.55;;;;;;;;;;5037903;28;20018;-82
2022/03/24 08:42:57;;;;;;;46.72;11.27;;;;;;;;;;5038036;28;20021;-82
2022/03/24 08:45:23;;;;;;;19.13;10.02;;;;;;;;;;5037823;28;20034;-82
2022/03/24 08:47:49;;;;;;;26.48;10.88;;;;;;;;;;5036707;28;20358;-82
2022/03/24 08:50:16;;;;;;;19.60;9.38;;;;;;;;;;5037951;28;20041;-82
2022/03/24 08:52:42;;;;;;;21.48;8.98;;;;;;;;;;5037916;28;20025;-82
2022/03/24 08:55:09;;;;;;;20.63;9.38;;;;;;;;;;5037812;28;20022;-83
2022/03/24 08:57:36;;;;;;;21.67;9.57;;;;;;;;;;5037520;28;20440;-81
2022/03/24 09:00:12;;;;;;;21.15;9.55;;;;;;;;;;5037682;28;20098;-82
2022/03/24 09:02:39;;;;;;;24.30;10.25;;;;;;;;;;5037629;28;20022;-82
2022/03/24 09:05:05;;;;;;;19.80;10.48;;;;;;;;;;5037391;28;20021;-82
2022/03/24 09:07:31;;;;;;;21.67;9.52;;;;;;;;;;5037602;28;20474;-82
2022/03/24 09:09:57;;;;;;;22.67;10.27;;;;;;;;;;5052545;28;20025;-82
2022/03/24 09:12:29;;;;;;;21.55;10.57;;;;;;;;;;5036901;28;20033;-82
2022/03/24 09:14:55;;;;;;;21.30;10.25;;;;;;;;;;5037517;28;20035;-82
2022/03/24 09:17:21;;;;;;;18.65;9.65;;;;;;;;;;5037491;28;20100;-82
2022/03/24 09:19:47;;;;;;;23.50;9.60;;;;;;;;;;5037110;28;20075;-81
2022/03/24 09:22:14;;;;;;;19.45;9.20;;;;;;;;;;5052735;28;20125;-81
2022/03/24 09:24:40;;;;;;;20.33;9.70;;;;;;;;;;5037266;28;20051;-81
2022/03/24 09:27:11;;;;;;;14.48;7.82;;;;;;;;;;5037220;28;20471;-82
2022/03/24 09:29:37;;;;;;;18.77;9.30;;;;;;;;;;5037486;28;20358;-82
2022/03/24 09:32:04;;;;;;;18.73;8.38;;;;;;;;;;5037054;28;20034;-81
2022/03/24 09:34:30;;;;;;;15.57;8.35;;;;;;;;;;5042752;28;20036;-81
2022/03/24 09:36:58;;;;;;;19.77;8.50;;;;;;;;;;5056771;28;20048;-81
2022/03/24 09:39:24;;;;;;;18.88;8.43;;;;;;;;;;5057100;28;20158;-81
2022/03/24 09:41:53;;;;;;;18.08;9.02;;;;;;;;;;5057057;28;20109;-81
2022/03/24 09:44:19;;;;;;;16.60;9.10;;;;;;;;;;5057117;28;20029;-81
2022/03/24 09:46:45;;;;;;;20.27;10.30;;;;;;;;;;5055877;28;20323;-82
2022/03/24 09:49:11;;;;;;;13.95;8.50;;;;;;;;;;5057073;28;20024;-82
2022/03/24 09:51:42;;;;;;;15.00;8.05;;;;;;;;;;5056670;28;20029;-82
2022/03/24 09:54:10;;;;;;;14.50;9.38;;;;;;;;;;5056862;28;20025;-81
2022/03/24 09:56:36;;;;;;;16.42;9.40;;;;;;;;;;5056822;28;20399;-81
2022/03/24 09:59:02;;;;;;;20.42;8.60;;;;;;;;;;5057143;28;20169;-81
2022/03/24 10:01:28;;;;;;;15.82;8.30;;;;;;;;;;5056752;28;20025;-81
2022/03/24 10:04:02;;;;;;;15.95;8.65;;;;;;;;;;5056897;28;20314;-82
2022/03/24 10:06:28;;;;;;;19.38;8.20;;;;;;;;;;5055727;28;20032;-82
2022/03/24 10:08:55;;;;;;;12.95;8.25;;;;;;;;;;5056696;28;20025;-81
2022/03/24 10:11:24;;;;;;;14.02;7.93;;;;;;;;;;5055681;28;20485;-81
2022/03/24 10:13:54;;;;;;;18.38;9.10;;;;;;;;;;5056124;28;20032;-82
2022/03/24 10:16:38;;;;;;;15.32;8.52;;;;;;;;;;5056929;28;20029;-81
2022/03/24 10:19:05;;;;;;;14.05;7.65;;;;;;;;;;5055538;28;20338;-81
2022/03/24 10:21:35;;;;;;;15.95;8.48;;;;;;;;;;5056653;28;20137;-84
2022/03/24 10:24:22;;;;;;;16.30;8.18;;;;;;;;;;5060344;28;20108;-82
2022/03/24 10:27:03;;;;;;;13.95;8.27;;;;;;;;;;5060478;28;20339;-82
2022/03/24 10:29:30;;;;;;;12.25;8.20;;;;;;;;;;5060382;28;20029;-82
2022/03/24 10:31:57;;;;;;;12.07;8.32;;;;;;;;;;5060267;28;20025;-82
2022/03/24 10:34:31;;;;;;;13.50;7.63;;;;;;;;;;5060022;28;20311;-82
2022/03/24 10:36:58;;;;;;;13.55;7.53;;;;;;;;;;5060115;28;20041;-82
2022/03/24 10:39:26;;;;;;;13.50;7.80;;;;;;;;;;5059007;28;20425;-82
2022/03/24 10:41:52;;;;;;;15.55;7.80;;;;;;;;;;5060211;28;20104;-82
2022/03/24 10:44:18;;;;;;;18.02;8.52;;;;;;;;;;5060116;28;20029;-83
2022/03/24 10:46:44;;;;;;;17.67;7.85;;;;;;;;;;5060061;28;20025;-82
2022/03/24 10:49:16;;;;;;;12.80;7.38;;;;;;;;;;5060049;28;20025;-82
2022/03/24 10:51:47;;;;;;;15.40;7.72;;;;;;;;;;5059992;28;20047;-82
2022/03/24 10:54:16;;;;;;;12.20;7.55;;;;;;;;;;5058899;28;20032;-82
2022/03/24 10:56:54;;;;;;;13.75;7.15;;;;;;;;;;5058887;28;20438;-82
2022/03/24 10:59:21;;;;;;;11.38;7.25;;;;;;;;;;5060183;28;20071;-82
2022/03/24 11:01:47;;;;;;;13.95;7.68;;;;;;;;;;5059724;28;20025;-82
2022/03/24 11:04:13;;;;;;;11.60;7.88;;;;;;;;;;5059463;28;20056;-82
2022/03/24 11:06:48;;;;;;;13.07;7.85;;;;;;;;;;5059842;28;20052;-82
2022/03/24 11:09:20;;;;;;;15.82;7.40;;;;;;;;;;5059548;28;20025;-83
2022/03/24 11:11:48;;;;;;;14.60;7.63;;;;;;;;;;5059636;28;20323;-83
2022/03/24 11:14:15;;;;;;;15.20;7.85;;;;;;;;;;5059328;28;20091;-82
2022/03/24 11:16:42;;;;;;;11.80;7.97;;;;;;;;;;5058428;28;20029;-82
2022/03/24 11:19:15;;;;;;;16.15;7.53;;;;;;;;;;5059482;28;20025;-82
2022/03/24 11:21:43;;;;;;;18.08;8.73;;;;;;;;;;5059091;28;20024;-82
2022/03/24 11:24:09;;;;;;;14.68;7.50;;;;;;;;;;5059388;28;20021;-82
2022/03/24 11:26:36;;;;;;;17.02;8.10;;;;;;;;;;5058434;28;20494;-82
2022/03/24 11:29:03;;;;;;;11.85;7.88;;;;;;;;;;5059373;28;20064;-82
2022/03/24 11:31:31;;;;;;;14.10;7.82;;;;;;;;;;5059282;28;20029;-82
2022/03/24 11:34:00;;;;;;;15.95;7.85;;;;;;;;;;5058526;28;20342;-82
2022/03/24 11:36:27;;;;;;;14.20;8.02;;;;;;;;;;5058942;28;20048;-82
2022/03/24 11:38:58;;;;;;;16.13;7.63;;;;;;;;;;5059346;28;20021;-82
2022/03/24 11:41:36;;;;;;;13.13;7.35;;;;;;;;;;5059057;28;20029;-82
2022/03/24 11:44:10;;;;;;;17.98;7.30;;;;;;;;;;5058931;28;20033;-82
2022/03/24 11:46:53;;;;;;;10.00;7.85;;;;;;;;;;5058849;28;20354;-82
2022/03/24 11:49:22;;;;;;;13.45;7.13;;;;;;;;;;5059107;28;20025;-83
2022/03/24 11:52:13;;;;;;;13.60;7.30;;;;;;;;;;5058948;28;20025;-83
2022/03/24 11:54:40;;;;;;;15.48;8.07;;;;;;;;;;5058953;28;20076;-83
2022/03/24 11:57:25;;;;;;;14.30;7.60;;;;;;;;;;5059031;28;20016;-82
2022/03/24 12:00:13;;;;;;;13.25;8.57;;;;;;;;;;5058523;28;20029;-83
2022/03/24 12:02:39;;;;;;;12.55;6.97;;;;;;;;;;5058704;28;20040;-83
2022/03/24 12:05:06;;;;;;;10.85;7.15;;;;;;;;;;5058589;28;20025;-83
2022/03/24 12:07:32;;;;;;;8.50;6.45;;;;;;;;;;5058615;28;20031;-82
2022/03/24 12:10:03;;;;;;;11.98;6.63;;;;;;;;;;5058768;28;20292;-82
2022/03/24 12:12:30;;;;;;;12.80;6.93;;;;;;;;;;5058480;28;20036;-85
2022/03/24 12:14:58;;;;;;;12.55;7.20;;;;;;;;;;5058032;28;20025;-82
2022/03/24 12:17:31;;;;;;;13.95;7.50;;;;;;;;;;5058570;28;20067;-82
2022/03/24 12:19:59;;;;;;;14.10;7.30;;;;;;;;;;5057344;28;20021;-83
2022/03/24 12:22:32;;;;;;;14.05;8.30;;;;;;;;;;5058297;28;20025;-82
2022/03/24 12:25:00;;;;;;;11.98;7.82;;;;;;;;;;5058176;28;20348;-82
2022/03/24 12:27:33;;;;;;;8.70;6.85;;;;;;;;;;5058109;28;20032;-82
2022/03/24 12:30:15;;;;;;;16.85;8.05;;;;;;;;;;5058056;28;20036;-82
2022/03/24 12:32:43;;;;;;;14.95;7.88;;;;;;;;;;5058032;28;20032;-82
2022/03/24 12:35:09;;;;;;;11.85;6.93;;;;;;;;;;5057983;28;20052;-82
2022/03/24 12:37:35;;;;;;;10.02;6.40;;;;;;;;;;5057993;28;20021;-82
2022/03/24 12:40:09;;;;;;;13.57;6.25;;;;;;;;;;5057855;28;20031;-82
2022/03/24 12:42:48;;;;;;;10.73;6.38;;;;;;;;;;5056860;28;20021;-82
2022/03/24 12:45:25;;;;;;;14.18;6.40;;;;;;;;;;5057738;28;20033;-82
2022/03/24 12:47:52;;;;;;;18.08;7.00;;;;;;;;;;5057674;28;20037;-82
2022/03/24 12:50:18;;;;;;;8.82;6.00;;;;;;;;;;5057828;28;20029;-81
2022/03/24 12:52:55;;;;;;;10.77;6.53;;;;;;;;;;5057651;28;20126;-82
2022/03/24 12:55:23;;;;;;;12.98;6.47;;;;;;;;;;5057683;28;20033;-82
2022/03/24 12:57:56;;;;;;;15.10;6.90;;;;;;;;;;5057461;28;20391;-82
2022/03/24 13:00:27;;;;;;;12.32;6.90;;;;;;;;;;5057484;28;20021;-82
2022/03/24 13:02:53;;;;;;;9.88;5.82;;;;;;;;;;5056479;28;20116;-82
2022/03/24 13:05:26;;;;;;;15.38;6.60;;;;;;;;;;5057472;28;20036;-82
2022/03/24 13:07:54;;;;;;;11.13;6.00;;;;;;;;;;5057477;28;20372;-83
2022/03/24 13:10:23;;;;;;;7.53;5.80;;;;;;;;;;5057365;28;20048;-82
2022/03/24 13:12:56;;;;;;;16.83;6.20;;;;;;;;;;5057316;28;20021;-82
2022/03/24 13:15:29;;;;;;;15.18;6.32;;;;;;;;;;5057354;28;20037;-82
2022/03/24 13:17:57;;;;;;;13.30;6.38;;;;;;;;;;5057128;28;20459;-83
2022/03/24 13:20:24;;;;;;;10.27;6.40;;;;;;;;;;5057122;28;20029;-83
2022/03/24 13:22:50;;;;;;;8.57;5.70;;;;;;;;;;5056036;28;20438;-82
2022/03/24 13:25:21;;;;;;;9.68;6.30;;;;;;;;;;5057007;28;20056;-82
2022/03/24 13:27:50;;;;;;;11.20;6.13;;;;;;;;;;5057268;28;20021;-82
2022/03/24 13:30:17;;;;;;;12.23;6.32;;;;;;;;;;5057149;28;20060;-82
2022/03/24 13:32:45;;;;;;;11.05;6.30;;;;;;;;;;5057119;28;20025;-82
2022/03/24 13:35:16;;;;;;;11.48;6.80;;;;;;;;;;5055765;28;20041;-83
2022/03/24 13:37:59;;;;;;;9.65;6.60;;;;;;;;;;5057261;28;20196;-83
2022/03/24 13:40:29;;;;;;;13.93;6.70;;;;;;;;;;5055783;28;20040;-83
2022/03/24 13:42:56;;;;;;;10.23;6.40;;;;;;;;;;5057001;28;20028;-83
2022/03/24 13:45:22;;;;;;;12.52;7.05;;;;;;;;;;5056808;28;20029;-82
2022/03/24 13:47:56;;;;;;;11.50;6.50;;;;;;;;;;5055870;28;20048;-82
2022/03/24 13:50:26;;;;;;;10.27;6.03;;;;;;;;;;5057096;28;20053;-82
2022/03/24 13:52:55;;;;;;;16.13;6.78;;;;;;;;;;5056989;28;20100;-82
2022/03/24 13:55:23;;;;;;;14.50;6.75;;;;;;;;;;5056939;28;20032;-82
2022/03/24 13:58:11;;;;;;;9.88;5.88;;;;;;;;;;5059379;28;20025;-83
2022/03/24 14:00:48;;;;;;;8.48;6.28;;;;;;;;;;5061066;28;20056;-82
2022/03/24 14:03:24;;;;;;;10.00;6.18;;;;;;;;;;5061126;28;20028;-82
2022/03/24 14:06:02;;;;;;;11.45;5.88;;;;;;;;;;5060965;28;20032;-82
2022/03/24 14:08:30;;;;;;;8.93;5.68;;;;;;;;;;5060801;28;20021;-82
2022/03/24 14:11:01;;;;;;;11.88;6.43;;;;;;;;;;5060664;28;20036;-83
2022/03/24 14:13:29;;;;;;;;;;;;;;;;;;5061274;28;20033;-83
2022/03/24 14:16:17;;;;;;;12.00;6.07;;;;;;;;;;5060871;28;19909;-83
2022/03/24 14:19:01;;;;;;;15.85;6.05;;;;;;;;;;5059492;28;20021;-82
2022/03/24 14:21:27;;;;;;;9.85;6.15;;;;;;;;;;5060456;28;20029;-83
2022/03/24 14:23:54;;;;;;;13.77;6.72;;;;;;;;;;5060697;28;20025;-83
2022/03/24 14:26:20;;;;;;;13.35;6.43;;;;;;;;;;5059452;28;20128;-82
2022/03/24 14:28:47;;;;;;;9.20;6.00;;;;;;;;;;5060660;28;20079;-82